Time;durP1;ratioP1;P1;durP2;ratioP2;P2;SDS_P1;SDS_P2;PMS_P1;PMS_P2;Temp;Humidity;BMP_temperature;BMP_pressure;BME280_temperature;BME280_humidity;BME280_pressure;Samples;Min_cycle;Max_cycle;Signal;HPM_P1;HPM_P2
2022/03/04 00:00:19;;;;;;;24.92;13.90;;;0.60;99.90;;;;;;5077434;28;20045;-69
2022/03/04 00:02:45;;;;;;;27.70;14.52;;;0.60;99.90;;;;;;5049632;28;20129;-67
2022/03/04 00:05:10;;;;;;;23.85;13.65;;;0.60;99.90;;;;;;5054010;28;20484;-69
2022/03/04 00:07:36;;;;;;;27.48;13.98;;;0.70;99.90;;;;;;5076661;28;20131;-67
2022/03/04 00:10:02;;;;;;;26.83;13.48;;;0.70;99.90;;;;;;5076158;28;20049;-69
2022/03/04 00:12:28;;;;;;;24.73;14.63;;;0.60;99.90;;;;;;5058720;28;20174;-67
2022/03/04 00:14:54;;;;;;;28.17;15.20;;;0.60;99.90;;;;;;5076371;28;20052;-67
2022/03/04 00:17:20;;;;;;;28.13;13.30;;;0.70;99.90;;;;;;5077251;28;20062;-69
2022/03/04 00:19:46;;;;;;;27.05;14.23;;;0.60;99.90;;;;;;5075534;28;20127;-70
2022/03/04 00:22:14;;;;;;;26.30;15.23;;;0.60;99.90;;;;;;5058933;28;20098;-72
2022/03/04 00:24:39;;;;;;;28.00;15.25;;;0.60;99.90;;;;;;5058978;28;20391;-70
2022/03/04 00:27:05;;;;;;;26.98;15.25;;;0.60;99.90;;;;;;5076100;28;20051;-69
2022/03/04 00:29:31;;;;;;;28.67;14.02;;;0.60;99.90;;;;;;5076126;28;20428;-70
2022/03/04 00:31:56;;;;;;;28.05;15.32;;;0.60;99.90;;;;;;5058929;28;20059;-69
2022/03/04 00:34:22;;;;;;;27.63;14.85;;;0.50;99.90;;;;;;5076219;28;20400;-71
2022/03/04 00:36:49;;;;;;;29.20;15.07;;;0.60;99.90;;;;;;5058665;28;20059;-67
2022/03/04 00:39:15;;;;;;;28.80;14.70;;;0.60;99.90;;;;;;5076061;28;20059;-70
2022/03/04 00:41:42;;;;;;;28.17;14.85;;;0.60;99.90;;;;;;5057719;28;20116;-69
2022/03/04 00:44:08;;;;;;;28.48;14.82;;;0.60;99.90;;;;;;5058096;28;20048;-68
2022/03/04 00:46:34;;;;;;;30.00;14.40;;;0.50;99.90;;;;;;5057550;28;20044;-68
2022/03/04 00:49:00;;;;;;;29.42;15.00;;;0.50;99.90;;;;;;5058279;28;20063;-69
2022/03/04 00:51:26;;;;;;;28.80;15.02;;;0.50;99.90;;;;;;5058429;28;20380;-69
2022/03/04 00:53:51;;;;;;;30.33;16.58;;;0.50;99.90;;;;;;5075313;28;20040;-68
2022/03/04 00:56:17;;;;;;;29.45;15.52;;;0.40;99.90;;;;;;5058363;28;20047;-68
2022/03/04 00:58:43;;;;;;;29.02;15.30;;;0.30;99.90;;;;;;5076034;28;20464;-68
2022/03/04 01:01:08;;;;;;;26.60;14.80;;;0.30;99.90;;;;;;5076015;28;20041;-69
2022/03/04 01:03:35;;;;;;;29.02;14.90;;;0.30;99.90;;;;;;5058152;28;20041;-69
2022/03/04 01:06:03;;;;;;;32.53;15.57;;;0.20;99.90;;;;;;5057899;28;20048;-68
2022/03/04 01:08:28;;;;;;;28.83;16.08;;;0.20;99.90;;;;;;5058083;28;20087;-70
2022/03/04 01:10:55;;;;;;;28.35;15.82;;;0.20;99.90;;;;;;5057358;28;20487;-67
2022/03/04 01:13:21;;;;;;;29.70;15.80;;;0.10;99.90;;;;;;5075313;28;20055;-67
2022/03/04 01:15:47;;;;;;;30.38;16.10;;;0.10;99.90;;;;;;5075374;28;20041;-69
2022/03/04 01:18:13;;;;;;;31.75;16.30;;;0.10;99.90;;;;;;5075359;28;20051;-70
2022/03/04 01:20:38;;;;;;;29.95;16.00;;;0.00;99.90;;;;;;5075355;28;20435;-68
2022/03/04 01:23:04;;;;;;;37.92;16.92;;;-0.10;99.90;;;;;;5057663;28;20127;-67
2022/03/04 01:25:30;;;;;;;34.83;17.65;;;-0.10;99.90;;;;;;5075382;28;20063;-69
2022/03/04 01:27:56;;;;;;;31.05;16.17;;;-0.10;99.90;;;;;;5074995;28;20128;-68
2022/03/04 01:30:21;;;;;;;41.83;19.23;;;0.10;99.90;;;;;;5075216;28;20087;-70
2022/03/04 01:32:47;;;;;;;34.22;17.63;;;-0.10;99.90;;;;;;5075500;28;20059;-70
2022/03/04 01:35:13;;;;;;;42.95;21.25;;;-0.20;99.90;;;;;;5057447;28;20040;-68
2022/03/04 01:37:40;;;;;;;32.15;17.35;;;-0.20;99.90;;;;;;5057786;28;20105;-68
2022/03/04 01:40:08;;;;;;;33.35;16.45;;;-0.30;99.90;;;;;;5056051;28;20063;-68
2022/03/04 01:42:34;;;;;;;35.92;17.15;;;-0.30;99.90;;;;;;5075336;28;20098;-67
2022/03/04 01:44:59;;;;;;;34.45;17.13;;;-0.30;99.90;;;;;;5057283;28;20048;-68
2022/03/04 01:47:25;;;;;;;34.75;17.40;;;-0.40;99.90;;;;;;5057604;28;20058;-69
2022/03/04 01:49:51;;;;;;;40.38;18.92;;;-0.40;99.90;;;;;;5074740;28;20041;-68
2022/03/04 01:52:16;;;;;;;40.03;19.70;;;-0.40;99.90;;;;;;5056890;28;20123;-67
2022/03/04 01:54:42;;;;;;;36.75;19.27;;;-0.30;99.90;;;;;;5075096;28;20059;-68
2022/03/04 01:57:08;;;;;;;36.40;18.85;;;-0.40;99.90;;;;;;5058060;28;20072;-68
2022/03/04 01:59:34;;;;;;;44.58;19.20;;;-0.40;99.90;;;;;;5057615;28;20076;-70
2022/03/04 02:02:00;;;;;;;41.55;19.50;;;-0.40;99.90;;;;;;5075005;28;20106;-70
2022/03/04 02:04:25;;;;;;;39.78;18.98;;;-0.50;99.90;;;;;;5059166;28;20041;-69
2022/03/04 02:06:51;;;;;;;39.20;19.33;;;-0.50;99.90;;;;;;5079279;28;20055;-67
2022/03/04 02:09:17;;;;;;;41.88;19.95;;;-0.50;99.90;;;;;;5060939;28;20098;-69
2022/03/04 02:11:44;;;;;;;36.67;18.85;;;-0.50;99.90;;;;;;5060843;28;20094;-68
2022/03/04 02:14:13;;;;;;;39.00;18.92;;;-0.50;99.90;;;;;;5061746;28;20052;-70
2022/03/04 02:16:59;;;;;;;39.42;18.52;;;-0.50;99.90;;;;;;5061460;28;20472;-68
2022/03/04 02:19:25;;;;;;;43.72;19.63;;;-0.50;99.90;;;;;;5044587;28;20048;-68
2022/03/04 02:22:00;;;;;;;43.72;20.58;;;-0.40;99.90;;;;;;5061076;28;20367;-69
2022/03/04 02:24:30;;;;;;;40.35;19.35;;;-0.60;99.90;;;;;;5061236;28;20095;-67
2022/03/04 02:26:58;;;;;;;44.22;20.77;;;-0.40;99.90;;;;;;5078420;28;20048;-69
2022/03/04 02:29:24;;;;;;;40.65;19.90;;;-0.60;99.90;;;;;;5060825;28;20139;-68
2022/03/04 02:31:51;;;;;;;40.65;19.42;;;-0.50;99.90;;;;;;5061080;28;20056;-70
2022/03/04 02:34:17;;;;;;;46.28;20.58;;;-0.40;99.90;;;;;;5078217;28;20044;-70
2022/03/04 02:36:43;;;;;;;38.88;19.25;;;-0.50;99.90;;;;;;5078362;28;20044;-68
2022/03/04 02:39:09;;;;;;;46.38;20.83;;;-0.60;99.90;;;;;;5060777;28;20049;-69
2022/03/04 02:41:34;;;;;;;50.70;20.48;;;-0.50;99.90;;;;;;5078440;28;20044;-69
2022/03/04 02:44:08;;;;;;;44.97;20.48;;;-0.60;99.90;;;;;;5061042;28;20087;-68
2022/03/04 02:46:34;;;;;;;44.08;20.83;;;-0.70;99.90;;;;;;5078490;28;20049;-70
2022/03/04 02:49:00;;;;;;;44.95;20.25;;;-0.20;99.90;;;;;;5060233;28;20182;-70
2022/03/04 02:51:26;;;;;;;40.45;19.92;;;-0.80;99.90;;;;;;5077879;28;20040;-68
2022/03/04 02:53:51;;;;;;;43.45;20.15;;;-0.80;99.90;;;;;;5060493;28;20071;-69
2022/03/04 02:56:17;;;;;;;46.03;21.40;;;-0.80;99.90;;;;;;5060371;28;20067;-70
2022/03/04 02:58:43;;;;;;;47.65;21.10;;;-0.80;99.90;;;;;;5060170;28;20131;-70
2022/03/04 03:01:09;;;;;;;43.70;21.58;;;-0.70;99.90;;;;;;5077959;28;20048;-69
2022/03/04 03:03:34;;;;;;;48.80;21.80;;;-0.80;99.90;;;;;;5060184;28;20063;-68
2022/03/04 03:06:00;;;;;;;47.92;21.73;;;-0.80;99.90;;;;;;5059807;28;20033;-69
2022/03/04 03:08:26;;;;;;;47.95;21.25;;;-0.80;99.90;;;;;;5078085;28;20044;-69
2022/03/04 03:10:52;;;;;;;53.00;21.70;;;-0.80;99.90;;;;;;5060052;28;20067;-68
2022/03/04 03:13:17;;;;;;;53.15;23.02;;;-0.80;99.90;;;;;;5077761;28;20071;-68
2022/03/04 03:15:43;;;;;;;41.65;18.67;;;-0.80;99.90;;;;;;5076813;28;20396;-72
2022/03/04 03:18:08;;;;;;;49.33;21.55;;;-0.80;99.90;;;;;;5077835;28;20041;-70
2022/03/04 03:20:34;;;;;;;48.83;21.77;;;-0.80;99.90;;;;;;5077967;28;20040;-70
2022/03/04 03:23:00;;;;;;;49.45;23.30;;;-0.80;99.90;;;;;;5060447;28;20056;-69
2022/03/04 03:25:25;;;;;;;52.45;22.77;;;-0.90;99.90;;;;;;5077474;28;20047;-68
2022/03/04 03:27:51;;;;;;;51.15;21.23;;;-0.90;99.90;;;;;;5059769;28;20044;-71
2022/03/04 03:30:17;;;;;;;46.17;19.10;;;-0.40;99.90;;;;;;5059864;28;20120;-68
2022/03/04 03:32:42;;;;;;;49.08;21.58;;;-0.80;99.90;;;;;;5077258;28;20040;-70
2022/03/04 03:35:08;;;;;;;53.08;23.55;;;-0.80;99.90;;;;;;5077425;28;20055;-69
2022/03/04 03:37:37;;;;;;;49.60;23.55;;;-0.70;99.90;;;;;;5077568;28;20047;-67
2022/03/04 03:40:06;;;;;;;55.90;24.25;;;-0.70;99.90;;;;;;5077195;28;20059;-70
2022/03/04 03:42:31;;;;;;;50.97;24.00;;;-0.70;99.90;;;;;;5077440;28;20048;-71
2022/03/04 03:44:57;;;;;;;51.13;20.85;;;-0.70;99.90;;;;;;5077270;28;20369;-69
2022/03/04 03:47:22;;;;;;;51.03;22.45;;;-0.60;99.90;;;;;;5077304;28;20051;-71
2022/03/04 03:49:48;;;;;;;51.28;22.58;;;-0.60;99.90;;;;;;5076960;28;20411;-70
2022/03/04 03:52:14;;;;;;;53.40;22.20;;;-0.60;99.90;;;;;;5059706;28;20052;-68
2022/03/04 03:54:40;;;;;;;62.45;23.77;;;-0.60;99.90;;;;;;5077232;28;20052;-68
2022/03/04 03:57:05;;;;;;;56.63;20.92;;;-0.60;99.90;;;;;;5059569;28;20392;-69
2022/03/04 03:59:31;;;;;;;57.88;24.98;;;-0.60;99.90;;;;;;5056580;28;20441;-71
2022/03/04 04:01:58;;;;;;;57.05;23.38;;;-0.60;99.90;;;;;;5061311;28;20043;-70
2022/03/04 04:04:24;;;;;;;60.03;24.50;;;-0.60;99.90;;;;;;5059009;28;20067;-68
2022/03/04 04:06:50;;;;;;;61.55;23.40;;;-0.50;99.90;;;;;;5058908;28;20044;-69
2022/03/04 04:09:16;;;;;;;63.75;25.50;;;-0.60;99.90;;;;;;5059178;28;20106;-68
2022/03/04 04:11:43;;;;;;;53.58;23.75;;;-0.60;99.90;;;;;;5058838;28;20045;-68
2022/03/04 04:14:09;;;;;;;49.47;23.67;;;-0.60;99.90;;;;;;5059028;28;20048;-69
2022/03/04 04:16:36;;;;;;;70.68;26.02;;;-0.50;99.90;;;;;;5058769;28;20056;-70
2022/03/04 04:19:03;;;;;;;63.10;25.38;;;-0.50;99.90;;;;;;5058512;28;20044;-67
2022/03/04 04:21:28;;;;;;;60.15;24.38;;;-0.60;99.90;;;;;;5076615;28;20062;-71
2022/03/04 04:23:55;;;;;;;56.92;24.13;;;-0.60;99.90;;;;;;5058799;28;20455;-69
2022/03/04 04:26:22;;;;;;;60.67;25.35;;;-0.60;99.90;;;;;;5076394;28;20095;-68
2022/03/04 04:28:48;;;;;;;66.10;25.23;;;-0.60;99.90;;;;;;5058145;28;20103;-69
2022/03/04 04:31:14;;;;;;;51.78;23.65;;;-0.60;99.90;;;;;;5076385;28;20044;-70
2022/03/04 04:33:40;;;;;;;59.22;25.27;;;-0.60;99.90;;;;;;5076068;28;20060;-68
2022/03/04 04:36:05;;;;;;;60.70;25.20;;;-0.60;99.90;;;;;;5058641;28;20048;-68
2022/03/04 04:38:31;;;;;;;62.50;24.27;;;-0.60;99.90;;;;;;5058739;28;20369;-71
2022/03/04 04:40:57;;;;;;;69.10;26.35;;;-0.50;99.90;;;;;;5058375;28;20063;-67
2022/03/04 04:43:23;;;;;;;59.45;25.73;;;-0.60;99.90;;;;;;5076303;28;20055;-70
2022/03/04 04:45:51;;;;;;;56.40;25.05;;;-0.50;99.90;;;;;;5058339;28;20044;-69
2022/03/04 04:48:16;;;;;;;56.13;25.50;;;-0.60;99.90;;;;;;5076206;28;20052;-68
2022/03/04 04:50:42;;;;;;;62.92;26.55;;;-0.60;99.90;;;;;;5024211;28;20439;-68
2022/03/04 04:53:08;;;;;;;59.50;23.98;;;-0.60;99.90;;;;;;5075776;28;20055;-69
2022/03/04 04:55:34;;;;;;;183.73;29.50;;;-0.50;99.90;;;;;;5075990;28;20463;-69
2022/03/04 04:57:59;;;;;;;60.05;24.92;;;-0.50;99.90;;;;;;5075870;28;20052;-69
2022/03/04 05:00:28;;;;;;;57.28;24.77;;;-0.60;99.90;;;;;;5076747;28;20116;-68
2022/03/04 05:02:53;;;;;;;51.55;23.38;;;-0.60;99.90;;;;;;5015805;28;20189;-68
2022/03/04 05:05:19;;;;;;;55.80;23.80;;;-0.50;99.90;;;;;;5014612;28;20089;-70
2022/03/04 05:07:46;;;;;;;61.97;26.85;;;-0.30;99.90;;;;;;5013439;28;20137;-71
2022/03/04 05:10:12;;;;;;;57.15;25.17;;;-0.50;99.90;;;;;;4997319;28;20062;-69
2022/03/04 05:12:38;;;;;;;59.25;25.25;;;-0.50;99.90;;;;;;5013913;28;20423;-70
2022/03/04 05:15:04;;;;;;;54.38;24.40;;;-0.50;99.90;;;;;;5013687;28;20068;-68
2022/03/04 05:17:29;;;;;;;52.88;23.67;;;-0.50;99.90;;;;;;5013556;28;20137;-67
2022/03/04 05:19:55;;;;;;;53.53;22.85;;;-0.40;99.90;;;;;;5013946;28;20124;-70
2022/03/04 05:22:20;;;;;;;53.00;23.55;;;-0.40;99.90;;;;;;5013470;28;20054;-69
2022/03/04 05:24:46;;;;;;;49.10;21.17;;;-0.40;99.90;;;;;;4991906;28;20049;-69
2022/03/04 05:27:12;;;;;;;50.03;24.10;;;-0.40;99.90;;;;;;4980686;28;20033;-67
2022/03/04 05:29:37;;;;;;;54.70;24.48;;;-0.40;99.90;;;;;;4996281;28;20054;-69
2022/03/04 05:32:03;;;;;;;50.83;23.95;;;-0.40;99.90;;;;;;4997180;28;20367;-67
2022/03/04 05:34:29;;;;;;;51.70;24.20;;;-0.40;99.90;;;;;;5061806;28;20189;-67
2022/03/04 05:36:54;;;;;;;52.17;23.33;;;-0.40;99.90;;;;;;5057463;28;20431;-68
2022/03/04 05:39:20;;;;;;;54.75;24.42;;;-0.40;99.90;;;;;;5074665;28;20139;-70
2022/03/04 05:41:46;;;;;;;43.28;20.23;;;-0.40;99.90;;;;;;5054167;28;20092;-68
2022/03/04 05:44:12;;;;;;;54.45;22.77;;;-0.40;99.90;;;;;;5053736;28;20057;-68
2022/03/04 05:46:38;;;;;;;51.72;23.75;;;-0.40;99.90;;;;;;5052435;28;20045;-70
2022/03/04 05:49:03;;;;;;;50.55;24.00;;;-0.50;99.90;;;;;;5052329;28;20063;-70
2022/03/04 05:51:30;;;;;;;54.03;24.48;;;-0.40;99.90;;;;;;5044748;28;20067;-70
2022/03/04 05:53:56;;;;;;;53.38;24.42;;;-0.40;99.90;;;;;;5053590;28;20053;-70
2022/03/04 05:56:22;;;;;;;53.92;26.77;;;-0.40;99.90;;;;;;5042534;28;20119;-69
2022/03/04 05:58:48;;;;;;;53.80;23.70;;;-0.50;99.90;;;;;;5043466;28;20076;-70
2022/03/04 06:01:13;;;;;;;50.13;24.23;;;-0.40;99.90;;;;;;5053880;28;20087;-72
2022/03/04 06:03:39;;;;;;;48.90;24.60;;;-0.50;99.90;;;;;;5054752;28;20056;-70
2022/03/04 06:06:05;;;;;;;46.97;23.02;;;-0.50;99.90;;;;;;5054579;28;20103;-69
2022/03/04 06:08:31;;;;;;;54.67;24.58;;;-0.50;99.90;;;;;;5054743;28;20077;-69
2022/03/04 06:10:57;;;;;;;48.22;22.45;;;-0.50;99.90;;;;;;5053726;28;20045;-71
2022/03/04 06:13:22;;;;;;;53.10;25.27;;;-0.40;99.90;;;;;;5054524;28;20338;-71
2022/03/04 06:15:48;;;;;;;49.78;24.80;;;-0.40;99.90;;;;;;5054543;28;20060;-70
2022/03/04 06:18:14;;;;;;;45.85;22.85;;;-0.40;99.90;;;;;;5053237;28;20045;-70
2022/03/04 06:20:40;;;;;;;44.25;23.05;;;-0.40;99.90;;;;;;5054583;28;20052;-68
2022/03/04 06:23:06;;;;;;;48.17;23.70;;;-0.40;99.90;;;;;;5053644;28;20049;-70
2022/03/04 06:25:31;;;;;;;56.08;24.58;;;-0.40;99.90;;;;;;5054609;28;20158;-70
2022/03/04 06:27:59;;;;;;;52.85;24.50;;;-0.40;99.90;;;;;;5054636;28;20045;-69
2022/03/04 06:30:27;;;;;;;48.15;25.02;;;-0.40;99.90;;;;;;5037180;28;20069;-70
2022/03/04 06:35:38;;;;;;;49.95;24.38;;;-0.40;99.90;;;;;;5051596;28;20049;-69
2022/03/04 06:38:04;;;;;;;52.08;23.98;;;-0.30;99.90;;;;;;5034471;28;20053;-73
2022/03/04 06:40:30;;;;;;;48.53;21.42;;;-0.30;99.90;;;;;;5039655;28;20064;-69
2022/03/04 06:42:56;;;;;;;47.28;23.55;;;-0.30;99.90;;;;;;5056006;28;20436;-72
2022/03/04 06:45:22;;;;;;;40.97;20.83;;;-0.30;99.90;;;;;;5045667;28;20048;-72
2022/03/04 06:47:47;;;;;;;43.25;20.95;;;-0.30;99.90;;;;;;5044063;28;20063;-71
2022/03/04 06:50:13;;;;;;;37.97;21.10;;;-0.30;99.90;;;;;;5047512;28;20705;-70
2022/03/04 06:52:39;;;;;;;47.38;23.52;;;-0.30;99.90;;;;;;5077585;28;20048;-71
2022/03/04 06:55:05;;;;;;;46.05;23.00;;;-0.30;99.90;;;;;;5053883;28;20118;-68
2022/03/04 06:57:31;;;;;;;45.03;22.92;;;-0.30;99.90;;;;;;5062939;28;20051;-71
2022/03/04 06:59:56;;;;;;;46.25;23.52;;;-0.30;99.90;;;;;;5077593;28;20131;-69
2022/03/04 07:02:22;;;;;;;41.67;21.45;;;0.20;99.90;;;;;;5078059;28;20041;-69
2022/03/04 07:04:49;;;;;;;44.65;22.25;;;-0.30;99.90;;;;;;5077899;28;20128;-69
2022/03/04 07:07:14;;;;;;;41.47;20.70;;;-0.30;99.90;;;;;;5075729;28;20050;-72
2022/03/04 07:09:40;;;;;;;39.65;21.92;;;-0.30;99.90;;;;;;5076756;28;20131;-72
2022/03/04 07:12:06;;;;;;;36.20;21.70;;;-0.30;99.90;;;;;;5076842;28;20123;-71
2022/03/04 07:14:31;;;;;;;38.72;19.63;;;-0.30;99.90;;;;;;5076849;28;20079;-69
2022/03/04 07:16:57;;;;;;;38.28;20.30;;;-0.30;99.90;;;;;;5070502;28;20045;-72
2022/03/04 07:19:23;;;;;;;42.47;21.92;;;-0.30;99.90;;;;;;5058528;28;20059;-73
2022/03/04 07:21:48;;;;;;;39.38;21.00;;;-0.30;99.90;;;;;;5077582;28;20131;-72
2022/03/04 07:24:14;;;;;;;36.10;18.70;;;-0.30;99.90;;;;;;5076817;28;20048;-71
2022/03/04 07:26:40;;;;;;;39.63;21.02;;;-0.20;99.90;;;;;;5077328;28;20041;-73
2022/03/04 07:29:05;;;;;;;44.55;23.98;;;-0.20;99.90;;;;;;5059311;28;20048;-72
2022/03/04 07:31:31;;;;;;;38.10;20.10;;;0.40;99.90;;;;;;5059459;28;20075;-72
2022/03/04 07:33:56;;;;;;;42.17;20.88;;;-0.20;99.90;;;;;;5043374;28;20060;-71
2022/03/04 07:36:22;;;;;;;40.78;21.10;;;-0.10;99.90;;;;;;5059090;28;20048;-71
2022/03/04 07:38:47;;;;;;;35.95;20.42;;;-0.10;99.90;;;;;;5070191;28;20044;-71
2022/03/04 07:41:13;;;;;;;39.58;21.40;;;-0.10;99.90;;;;;;5038983;28;20056;-70
2022/03/04 07:43:38;;;;;;;71.45;22.33;;;-0.20;99.90;;;;;;5056185;28;20045;-72
2022/03/04 07:46:04;;;;;;;44.78;20.42;;;-0.20;99.90;;;;;;5056968;28;20049;-70
2022/03/04 07:48:30;;;;;;;35.90;19.38;;;-0.20;99.90;;;;;;5056017;28;20049;-73
2022/03/04 07:50:55;;;;;;;39.50;21.17;;;-0.10;99.90;;;;;;5053045;28;20056;-71
2022/03/04 07:53:21;;;;;;;45.55;23.48;;;0.00;99.90;;;;;;5042799;28;20090;-70
2022/03/04 07:55:47;;;;;;;44.85;22.52;;;0.00;99.90;;;;;;5074856;28;20048;-71
2022/03/04 07:58:12;;;;;;;40.78;21.48;;;0.00;99.90;;;;;;5047881;28;20469;-69
2022/03/04 08:00:38;;;;;;;39.47;21.50;;;0.10;99.90;;;;;;5056570;28;20051;-70
2022/03/04 08:03:03;;;;;;;40.72;22.02;;;0.20;99.90;;;;;;5047609;28;20049;-72
2022/03/04 08:05:29;;;;;;;38.90;21.98;;;0.30;99.90;;;;;;5056906;28;20450;-69
2022/03/04 08:07:55;;;;;;;42.75;21.13;;;0.30;99.90;;;;;;5056651;28;20427;-70
2022/03/04 08:10:21;;;;;;;42.40;21.85;;;0.40;99.90;;;;;;5056553;28;20496;-71
2022/03/04 08:12:46;;;;;;;39.97;21.60;;;0.60;99.90;;;;;;5038490;28;20052;-70
2022/03/04 08:15:12;;;;;;;42.10;21.58;;;0.50;99.90;;;;;;5039268;28;20069;-71
2022/03/04 08:17:41;;;;;;;38.92;20.42;;;0.60;99.90;;;;;;5038223;28;20368;-71
2022/03/04 08:20:08;;;;;;;40.22;21.88;;;0.70;99.90;;;;;;5038602;28;20414;-70
2022/03/04 08:22:34;;;;;;;40.10;22.05;;;0.60;99.90;;;;;;5038443;28;20128;-70
2022/03/04 08:25:00;;;;;;;37.88;21.92;;;0.70;99.90;;;;;;5039004;28;20092;-70
2022/03/04 08:27:25;;;;;;;39.28;22.05;;;0.70;99.90;;;;;;5059364;28;20044;-73
2022/03/04 08:29:51;;;;;;;39.83;22.30;;;0.80;99.90;;;;;;5059047;28;20091;-71
2022/03/04 08:32:17;;;;;;;36.53;21.00;;;0.80;99.90;;;;;;5058688;28;20044;-69
2022/03/04 08:34:42;;;;;;;34.78;19.80;;;1.10;99.90;;;;;;5058854;28;20365;-70
2022/03/04 08:37:08;;;;;;;33.33;18.42;;;0.90;99.90;;;;;;5057420;28;20110;-70
2022/03/04 08:39:33;;;;;;;35.70;20.10;;;0.90;99.90;;;;;;5057658;28;20103;-69
2022/03/04 08:41:59;;;;;;;32.75;18.48;;;1.00;99.90;;;;;;5075890;28;20430;-70
2022/03/04 08:44:25;;;;;;;33.03;19.05;;;1.00;99.90;;;;;;5057785;28;20044;-71
2022/03/04 08:46:50;;;;;;;32.85;20.65;;;1.10;99.90;;;;;;5058100;28;20469;-69
2022/03/04 08:49:19;;;;;;;33.13;19.30;;;0.90;99.90;;;;;;5075896;28;20048;-69
2022/03/04 08:51:45;;;;;;;33.83;20.98;;;0.90;99.90;;;;;;5053154;28;20462;-69
2022/03/04 08:54:11;;;;;;;35.90;21.08;;;0.80;99.90;;;;;;5075016;28;20342;-68
2022/03/04 08:56:37;;;;;;;31.17;19.92;;;0.90;99.90;;;;;;5057860;28;20055;-71
2022/03/04 08:59:03;;;;;;;36.65;20.10;;;0.90;99.90;;;;;;5074881;28;20044;-71
2022/03/04 09:01:29;;;;;;;36.15;21.08;;;1.00;99.90;;;;;;5075568;28;20049;-69
2022/03/04 09:03:55;;;;;;;31.27;18.63;;;1.20;99.90;;;;;;5040825;28;20052;-69
2022/03/04 09:06:21;;;;;;;32.63;20.15;;;1.20;99.90;;;;;;5051932;28;20049;-68
2022/03/04 09:08:47;;;;;;;32.67;20.20;;;1.30;99.90;;;;;;5023469;28;20414;-70
2022/03/04 09:11:12;;;;;;;30.70;17.48;;;1.30;99.90;;;;;;5071130;28;20079;-68
2022/03/04 09:13:38;;;;;;;28.92;18.85;;;1.40;99.90;;;;;;5040333;28;20101;-69
2022/03/04 09:16:04;;;;;;;32.28;18.88;;;1.50;99.90;;;;;;5067692;28;20041;-69
2022/03/04 09:18:30;;;;;;;34.38;19.92;;;1.50;99.90;;;;;;5057019;28;20080;-72
2022/03/04 09:20:56;;;;;;;31.83;19.75;;;1.40;99.90;;;;;;5068245;28;20068;-71
2022/03/04 09:23:22;;;;;;;33.97;18.05;;;1.50;99.90;;;;;;5058194;28;20491;-70
2022/03/04 09:25:48;;;;;;;31.70;19.38;;;1.50;99.90;;;;;;5053027;28;20041;-71
2022/03/04 09:28:15;;;;;;;31.50;19.13;;;1.50;99.90;;;;;;5066205;28;20202;-72
2022/03/04 09:30:41;;;;;;;31.45;18.83;;;1.50;99.90;;;;;;5056931;28;20053;-72
2022/03/04 09:33:07;;;;;;;34.20;18.95;;;1.70;99.90;;;;;;5074924;28;20364;-71
2022/03/04 09:35:33;;;;;;;27.15;18.00;;;1.80;99.90;;;;;;5075136;28;20044;-71
2022/03/04 09:37:58;;;;;;;29.13;17.90;;;1.90;99.90;;;;;;5074248;28;20055;-72
2022/03/04 09:40:25;;;;;;;30.67;18.63;;;2.00;99.90;;;;;;5058583;28;20060;-71
2022/03/04 09:42:51;;;;;;;28.77;17.38;;;2.00;99.90;;;;;;5067764;28;20126;-73
2022/03/04 09:45:16;;;;;;;28.02;17.50;;;2.00;99.90;;;;;;5040331;28;20055;-72
2022/03/04 09:47:43;;;;;;;28.17;17.58;;;2.10;99.90;;;;;;5069843;28;20041;-73
2022/03/04 09:50:09;;;;;;;29.73;18.30;;;2.00;99.90;;;;;;5056580;28;20049;-68
2022/03/04 09:52:35;;;;;;;31.27;17.55;;;1.90;99.90;;;;;;5063275;28;20879;-68
2022/03/04 09:55:02;;;;;;;29.02;19.27;;;1.70;99.90;;;;;;5056581;28;20098;-68
2022/03/04 09:57:27;;;;;;;32.00;19.27;;;1.80;99.90;;;;;;5061737;28;20421;-71
2022/03/04 09:59:53;;;;;;;32.13;16.90;;;2.00;99.90;;;;;;5040032;28;20128;-73
2022/03/04 10:02:20;;;;;;;28.27;17.48;;;2.00;99.90;;;;;;5074795;28;20144;-71
2022/03/04 10:04:45;;;;;;;31.95;17.95;;;2.10;99.90;;;;;;5057144;28;20091;-72
2022/03/04 10:07:13;;;;;;;27.55;17.52;;;2.20;99.90;;;;;;5056618;28;20198;-71
2022/03/04 10:09:49;;;;;;;31.52;17.85;;;2.20;99.90;;;;;;5056610;28;20457;-70
2022/03/04 10:12:20;;;;;;;31.42;19.65;;;2.20;99.90;;;;;;5056908;28;20524;-71
2022/03/04 10:15:01;;;;;;;34.13;18.77;;;2.30;99.90;;;;;;5073225;28;20165;-71
2022/03/04 10:17:27;;;;;;;31.30;18.58;;;2.20;99.90;;;;;;5073867;28;20091;-67
2022/03/04 10:19:58;;;;;;;29.00;18.30;;;2.30;99.90;;;;;;5056777;28;20044;-70
2022/03/04 10:22:42;;;;;;;32.60;17.90;;;2.40;99.90;;;;;;5074494;28;20048;-71
2022/03/04 10:25:25;;;;;;;32.00;18.83;;;2.50;99.90;;;;;;5058133;28;20036;-71
2022/03/04 10:27:52;;;;;;;28.17;17.88;;;2.60;99.90;;;;;;5060076;28;20047;-71
2022/03/04 10:30:29;;;;;;;30.75;19.00;;;2.60;99.90;;;;;;5061068;28;20058;-72
2022/03/04 10:33:18;;;;;;;31.50;19.15;;;2.70;99.90;;;;;;5055036;28;20041;-71
2022/03/04 10:35:45;;;;;;;29.60;19.15;;;2.80;99.90;;;;;;5057579;28;20107;-72
2022/03/04 10:38:21;;;;;;;29.50;18.23;;;2.80;99.90;;;;;;5039796;28;20041;-70
2022/03/04 10:40:48;;;;;;;27.35;17.55;;;3.00;99.90;;;;;;5040354;28;20459;-68
2022/03/04 10:43:32;;;;;;;33.88;18.70;;;3.10;99.90;;;;;;5040723;28;20049;-73
2022/03/04 10:46:03;;;;;;;26.45;17.60;;;3.20;99.90;;;;;;5037956;28;20045;-68
2022/03/04 10:48:32;;;;;;;30.25;18.70;;;3.20;99.90;;;;;;5057687;28;20045;-70
2022/03/04 10:51:04;;;;;;;34.67;17.65;;;3.30;99.90;;;;;;5057931;28;20103;-70
2022/03/04 10:53:31;;;;;;;31.55;19.80;;;3.40;99.90;;;;;;5040444;28;20045;-69
2022/03/04 10:56:05;;;;;;;29.40;18.67;;;3.50;99.90;;;;;;5043216;28;20048;-70
2022/03/04 10:58:35;;;;;;;27.80;17.40;;;3.60;99.90;;;;;;5076988;28;20420;-71
2022/03/04 11:01:05;;;;;;;26.98;17.85;;;3.80;99.90;;;;;;5059044;28;20048;-70
2022/03/04 11:03:33;;;;;;;33.03;19.67;;;3.90;99.90;;;;;;5077642;28;20052;-71
2022/03/04 11:06:02;;;;;;;28.30;19.08;;;4.00;99.90;;;;;;5060449;28;20127;-70
2022/03/04 11:08:28;;;;;;;26.42;17.45;;;4.00;99.90;;;;;;5059808;28;20052;-71
2022/03/04 11:10:56;;;;;;;27.60;17.35;;;4.10;99.90;;;;;;5060158;28;20092;-71
2022/03/04 11:13:22;;;;;;;27.27;17.13;;;4.20;99.90;;;;;;5060082;28;20119;-71
2022/03/04 11:15:49;;;;;;;27.20;17.15;;;4.30;99.90;;;;;;5077108;28;20048;-72
2022/03/04 11:18:16;;;;;;;26.95;17.85;;;4.40;99.90;;;;;;5059661;28;20472;-70
2022/03/04 11:20:44;;;;;;;25.15;16.98;;;4.50;99.90;;;;;;5076936;28;20053;-71
2022/03/04 11:23:15;;;;;;;26.85;16.52;;;4.50;99.90;;;;;;5074246;28;20365;-72
2022/03/04 11:25:43;;;;;;;23.77;16.58;;;4.70;99.90;;;;;;5077446;28;20075;-71
2022/03/04 11:28:15;;;;;;;27.75;16.85;;;4.70;99.90;;;;;;5076949;28;20059;-72
2022/03/04 11:30:46;;;;;;;24.63;15.55;;;4.70;99.90;;;;;;5059859;28;20060;-71
2022/03/04 11:33:29;;;;;;;27.00;17.67;;;4.90;99.90;;;;;;5077201;28;20045;-71
2022/03/04 11:36:06;;;;;;;26.65;16.15;;;5.10;99.90;;;;;;5076723;28;20067;-70
2022/03/04 11:38:50;;;;;;;25.52;15.93;;;5.20;99.90;;;;;;5076233;28;20063;-74
2022/03/04 11:41:30;;;;;;;27.83;15.50;;;5.20;99.90;;;;;;5076799;28;20380;-70
2022/03/04 11:44:10;;;;;;;23.88;16.55;;;5.30;99.90;;;;;;5059458;28;20422;-69
2022/03/04 11:46:47;;;;;;;28.42;17.17;;;5.30;99.90;;;;;;5076896;28;20043;-72
2022/03/04 11:49:26;;;;;;;26.30;17.40;;;5.40;99.90;;;;;;5042893;28;20103;-71
2022/03/04 11:52:10;;;;;;;21.95;15.13;;;5.50;99.90;;;;;;5059566;28;20044;-71
2022/03/04 11:54:36;;;;;;;;;;;5.80;99.90;;;;;;5077281;28;20145;-70
2022/03/04 11:57:24;;;;;;;23.63;15.55;;;5.80;99.90;;;;;;5057440;28;19978;-69
2022/03/04 11:59:51;;;;;;;23.35;14.68;;;6.00;99.90;;;;;;5058979;28;20064;-70
2022/03/04 12:02:27;;;;;;;26.73;14.10;;;6.00;99.90;;;;;;5059039;28;20457;-69
2022/03/04 12:05:19;;;;;;;22.38;15.05;;;6.00;99.90;;;;;;5059325;28;20123;-71
2022/03/04 12:08:08;;;;;;;21.73;14.70;;;6.10;99.90;;;;;;5036201;28;20106;-70
2022/03/04 12:10:39;;;;;;;22.55;14.43;;;6.10;99.90;;;;;;5059026;28;20087;-68
2022/03/04 12:13:11;;;;;;;22.05;13.48;;;6.10;99.90;;;;;;5058333;28;20049;-69
2022/03/04 12:15:38;;;;;;;22.17;14.10;;;6.10;99.90;;;;;;5076327;28;20110;-70
2022/03/04 12:18:15;;;;;;;23.15;15.32;;;6.20;99.90;;;;;;5041688;28;20049;-68
2022/03/04 12:20:40;;;;;;;20.23;13.73;;;6.20;99.90;;;;;;5058497;28;20044;-70
2022/03/04 12:23:27;;;;;;;22.92;14.73;;;6.30;99.90;;;;;;5076687;28;20044;-68
2022/03/04 12:25:59;;;;;;;20.58;13.13;;;6.40;99.90;;;;;;5058280;28;20131;-70
2022/03/04 12:28:27;;;;;;;21.20;13.75;;;6.30;99.90;;;;;;5076354;28;20049;-69
2022/03/04 12:31:01;;;;;;;25.95;14.15;;;6.40;99.90;;;;;;5075909;28;20106;-70
2022/03/04 12:33:33;;;;;;;20.95;13.68;;;6.60;99.90;;;;;;5075735;28;20445;-70
2022/03/04 12:36:03;;;;;;;20.63;13.35;;;6.70;99.90;;;;;;5058051;28;20113;-70